Highland Home, Alabama
Current Conditions -  °F | °C
As of 11:53 PM on Wednesday 28 Jan 2015 (Local Time) from KTOI Reporting Station
Clear Clear  
Wind Chill: 39°   Ceiling: Unl
Heat Index: 42°   Visibility: 10mi
Dew Point: 32°   Wind: 5mph
Humidity: 67%   Direction: 150°SSE
Pressure: 30.25"   Gusts: NA
Location:  31.95°N, 86.31°W
Report Text: KTOI 290553Z AUTO 15004KT 10SM CLR 06/00 A3025 RMK AO2 SLP244 T00560000 10094 20022 401611022 58008
Loading
Personal Weather Stations






























Interactive Weather Map New forecast layout! Learn more

10-Day Weather Forecast

Advertisements
Track Severe Weather on mobile